sensor_id;sensor_type;location;lat;lon;timestamp;pressure;altitude;pressure_sealevel;temperature;humidity
6453;BME280;3259;51.080;13.712;2023-08-12T00:02:01;100757.63;;;26.58;46.63
6453;BME280;3259;51.080;13.712;2023-08-12T00:04:50;100752.75;;;26.68;46.52
6453;BME280;3259;51.080;13.712;2023-08-12T00:07:40;100763.84;;;26.71;46.51
6453;BME280;3259;51.080;13.712;2023-08-12T00:10:29;100762.81;;;26.72;46.52
6453;BME280;3259;51.080;13.712;2023-08-12T00:13:18;100760.75;;;26.68;46.61
6453;BME280;3259;51.080;13.712;2023-08-12T00:16:07;100757.25;;;26.67;46.50
6453;BME280;3259;51.080;13.712;2023-08-12T00:18:58;100761.38;;;26.70;46.59
6453;BME280;3259;51.080;13.712;2023-08-12T00:21:47;100757.88;;;26.69;46.55
6453;BME280;3259;51.080;13.712;2023-08-12T00:24:37;100764.25;;;26.68;46.46
6453;BME280;3259;51.080;13.712;2023-08-12T00:27:26;100755.59;;;26.66;46.52
6453;BME280;3259;51.080;13.712;2023-08-12T00:30:16;100753.09;;;26.65;46.52
6453;BME280;3259;51.080;13.712;2023-08-12T00:33:04;100751.47;;;26.64;46.41
6453;BME280;3259;51.080;13.712;2023-08-12T00:35:54;100751.69;;;26.62;46.49
6453;BME280;3259;51.080;13.712;2023-08-12T00:38:43;100754.72;;;26.59;46.72
6453;BME280;3259;51.080;13.712;2023-08-12T00:41:32;100743.44;;;26.64;46.44
6453;BME280;3259;51.080;13.712;2023-08-12T00:44:21;100744.66;;;26.61;46.42
6453;BME280;3259;51.080;13.712;2023-08-12T00:47:09;100746.47;;;26.54;46.38
6453;BME280;3259;51.080;13.712;2023-08-12T00:49:59;100746.47;;;26.54;46.87
6453;BME280;3259;51.080;13.712;2023-08-12T00:52:50;100740.31;;;26.60;46.54
6453;BME280;3259;51.080;13.712;2023-08-12T00:55:41;100739.34;;;26.68;46.38
6453;BME280;3259;51.080;13.712;2023-08-12T00:58:30;100745.09;;;26.71;46.32
6453;BME280;3259;51.080;13.712;2023-08-12T01:01:20;100738.31;;;26.69;46.29
6453;BME280;3259;51.080;13.712;2023-08-12T01:04:09;100739.53;;;26.66;46.27
6453;BME280;3259;51.080;13.712;2023-08-12T01:06:58;100744.47;;;26.63;46.43
6453;BME280;3259;51.080;13.712;2023-08-12T01:09:48;100739.94;;;26.63;46.37
6453;BME280;3259;51.080;13.712;2023-08-12T01:12:41;100735.81;;;26.61;46.51
6453;BME280;3259;51.080;13.712;2023-08-12T01:15:33;100737.03;;;26.58;46.38
6453;BME280;3259;51.080;13.712;2023-08-12T01:18:24;100731.66;;;26.58;46.33
6453;BME280;3259;51.080;13.712;2023-08-12T01:21:16;100741.13;;;26.54;46.74
6453;BME280;3259;51.080;13.712;2023-08-12T01:24:07;100735.19;;;26.59;46.39
6453;BME280;3259;51.080;13.712;2023-08-12T01:26:55;100735.63;;;26.62;46.34
6453;BME280;3259;51.080;13.712;2023-08-12T01:29:46;100734.38;;;26.65;46.31
6453;BME280;3259;51.080;13.712;2023-08-12T01:32:40;100735.78;;;26.54;46.56
6453;BME280;3259;51.080;13.712;2023-08-12T01:35:33;100737.84;;;26.52;46.56
6453;BME280;3259;51.080;13.712;2023-08-12T01:38:25;100734.13;;;26.53;46.57
6453;BME280;3259;51.080;13.712;2023-08-12T01:41:16;100733.50;;;26.51;46.48
6453;BME280;3259;51.080;13.712;2023-08-12T01:44:07;100725.81;;;26.48;46.65
6453;BME280;3259;51.080;13.712;2023-08-12T01:46:56;100726.03;;;26.47;46.55
6453;BME280;3259;51.080;13.712;2023-08-12T01:49:44;100722.81;;;26.51;46.58
6453;BME280;3259;51.080;13.712;2023-08-12T01:52:33;100720.47;;;26.48;46.59
6453;BME280;3259;51.080;13.712;2023-08-12T01:55:22;100714.78;;;26.51;46.64
6453;BME280;3259;51.080;13.712;2023-08-12T01:58:12;100713.75;;;26.52;46.60
6453;BME280;3259;51.080;13.712;2023-08-12T02:01:01;100704.81;;;26.45;46.59
6453;BME280;3259;51.080;13.712;2023-08-12T02:03:50;100710.66;;;26.55;46.71
6453;BME280;3259;51.080;13.712;2023-08-12T02:06:39;100702.63;;;26.55;46.56
6453;BME280;3259;51.080;13.712;2023-08-12T02:09:29;100696.78;;;26.45;46.62
6453;BME280;3259;51.080;13.712;2023-08-12T02:12:17;100698.25;;;26.48;46.58
6453;BME280;3259;51.080;13.712;2023-08-12T02:15:08;100692.88;;;26.41;46.72
6453;BME280;3259;51.080;13.712;2023-08-12T02:17:57;100695.34;;;26.43;46.88
6453;BME280;3259;51.080;13.712;2023-08-12T02:20:46;100696.59;;;26.47;46.54
6453;BME280;3259;51.080;13.712;2023-08-12T02:23:35;100691.66;;;26.44;46.47
6453;BME280;3259;51.080;13.712;2023-08-12T02:26:24;100687.53;;;26.41;46.56
6453;BME280;3259;51.080;13.712;2023-08-12T02:29:13;100681.38;;;26.47;46.46
6453;BME280;3259;51.080;13.712;2023-08-12T02:32:03;100681.78;;;26.44;46.47
6453;BME280;3259;51.080;13.712;2023-08-12T02:34:52;100672.31;;;26.48;46.45
6453;BME280;3259;51.080;13.712;2023-08-12T02:37:41;100675.69;;;26.50;46.38
6453;BME280;3259;51.080;13.712;2023-08-12T02:40:30;100670.72;;;26.54;46.23
6453;BME280;3259;51.080;13.712;2023-08-12T02:43:18;100669.09;;;26.59;46.21
6453;BME280;3259;51.080;13.712;2023-08-12T02:46:07;100671.16;;;26.57;46.01
6453;BME280;3259;51.080;13.712;2023-08-12T02:48:57;100666.41;;;26.53;46.05
6453;BME280;3259;51.080;13.712;2023-08-12T02:51:46;100668.41;;;26.44;46.25
6453;BME280;3259;51.080;13.712;2023-08-12T02:54:35;100664.47;;;26.40;46.31
6453;BME280;3259;51.080;13.712;2023-08-12T02:57:23;100667.78;;;26.42;46.47
6453;BME280;3259;51.080;13.712;2023-08-12T03:00:13;100660.16;;;26.39;46.38
6453;BME280;3259;51.080;13.712;2023-08-12T03:03:02;100666.13;;;26.41;46.33
6453;BME280;3259;51.080;13.712;2023-08-12T03:05:52;100668.66;;;26.49;46.08
6453;BME280;3259;51.080;13.712;2023-08-12T03:08:41;100659.97;;;26.47;46.27
6453;BME280;3259;51.080;13.712;2023-08-12T03:11:30;100658.78;;;26.50;46.07
6453;BME280;3259;51.080;13.712;2023-08-12T03:14:19;100659.63;;;26.50;45.98
6453;BME280;3259;51.080;13.712;2023-08-12T03:17:07;100661.22;;;26.45;45.94
6453;BME280;3259;51.080;13.712;2023-08-12T03:19:57;100662.84;;;26.39;46.06
6453;BME280;3259;51.080;13.712;2023-08-12T03:22:48;100659.75;;;26.42;46.09
6453;BME280;3259;51.080;13.712;2023-08-12T03:25:36;100663.63;;;26.33;46.45
6453;BME280;3259;51.080;13.712;2023-08-12T03:28:25;100668.97;;;26.33;46.46
6453;BME280;3259;51.080;13.712;2023-08-12T03:31:14;100668.13;;;26.26;46.62
6453;BME280;3259;51.080;13.712;2023-08-12T03:34:03;100661.53;;;26.29;46.66
6453;BME280;3259;51.080;13.712;2023-08-12T03:36:51;100665.84;;;26.30;46.46
6453;BME280;3259;51.080;13.712;2023-08-12T03:39:42;100651.66;;;26.29;46.28
6453;BME280;3259;51.080;13.712;2023-08-12T03:42:30;100654.97;;;26.31;46.56
6453;BME280;3259;51.080;13.712;2023-08-12T03:45:19;100655.38;;;26.28;46.49
6453;BME280;3259;51.080;13.712;2023-08-12T03:48:09;100650.84;;;26.35;46.42
6453;BME280;3259;51.080;13.712;2023-08-12T03:50:57;100648.41;;;26.34;46.48
6453;BME280;3259;51.080;13.712;2023-08-12T03:53:46;100650.09;;;26.48;46.02
6453;BME280;3259;51.080;13.712;2023-08-12T03:56:36;100647.25;;;26.49;45.86
6453;BME280;3259;51.080;13.712;2023-08-12T03:59:25;100642.66;;;26.37;46.26
6453;BME280;3259;51.080;13.712;2023-08-12T04:02:14;100644.84;;;26.27;46.62
6453;BME280;3259;51.080;13.712;2023-08-12T04:05:03;100641.38;;;26.26;46.46
6453;BME280;3259;51.080;13.712;2023-08-12T04:07:52;100647.94;;;26.24;46.52
6453;BME280;3259;51.080;13.712;2023-08-12T04:10:44;100649.41;;;26.26;46.35
6453;BME280;3259;51.080;13.712;2023-08-12T04:13:35;100643.03;;;26.27;46.18
6453;BME280;3259;51.080;13.712;2023-08-12T04:16:24;100646.38;;;26.42;45.88
6453;BME280;3259;51.080;13.712;2023-08-12T04:19:13;100640.56;;;26.32;45.96
6453;BME280;3259;51.080;13.712;2023-08-12T04:22:02;100631.50;;;26.27;46.58
6453;BME280;3259;51.080;13.712;2023-08-12T04:24:50;100643.84;;;26.34;46.15
6453;BME280;3259;51.080;13.712;2023-08-12T04:27:39;100635.66;;;26.42;45.82
6453;BME280;3259;51.080;13.712;2023-08-12T04:30:29;100645.97;;;26.45;45.85
6453;BME280;3259;51.080;13.712;2023-08-12T04:33:18;100642.25;;;26.40;46.08
6453;BME280;3259;51.080;13.712;2023-08-12T04:36:07;100647.97;;;26.30;46.28
6453;BME280;3259;51.080;13.712;2023-08-12T04:38:56;100644.88;;;26.33;46.18
6453;BME280;3259;51.080;13.712;2023-08-12T04:41:45;100643.06;;;26.34;46.24
6453;BME280;3259;51.080;13.712;2023-08-12T04:44:34;100651.25;;;26.32;46.37
6453;BME280;3259;51.080;13.712;2023-08-12T04:47:24;100643.03;;;26.27;46.43
6453;BME280;3259;51.080;13.712;2023-08-12T04:50:15;100634.41;;;26.32;46.08
6453;BME280;3259;51.080;13.712;2023-08-12T04:53:04;100630.69;;;26.26;46.25
6453;BME280;3259;51.080;13.712;2023-08-12T04:55:54;100636.03;;;26.26;46.42
6453;BME280;3259;51.080;13.712;2023-08-12T04:58:43;100629.00;;;26.25;46.31
6453;BME280;3259;51.080;13.712;2023-08-12T05:01:32;100631.91;;;26.24;46.39
6453;BME280;3259;51.080;13.712;2023-08-12T05:04:22;100626.97;;;26.27;46.42
6453;BME280;3259;51.080;13.712;2023-08-12T05:07:11;100626.13;;;26.27;46.43
6453;BME280;3259;51.080;13.712;2023-08-12T05:10:00;100628.22;;;26.31;46.32
6453;BME280;3259;51.080;13.712;2023-08-12T05:12:48;100629.84;;;26.26;46.43
6453;BME280;3259;51.080;13.712;2023-08-12T05:15:39;100628.22;;;26.31;46.33
6453;BME280;3259;51.080;13.712;2023-08-12T05:18:27;100638.06;;;26.31;46.27
6453;BME280;3259;51.080;13.712;2023-08-12T05:21:17;100640.16;;;26.35;46.26
6453;BME280;3259;51.080;13.712;2023-08-12T05:24:07;100629.88;;;26.32;46.40
6453;BME280;3259;51.080;13.712;2023-08-12T05:26:58;100623.91;;;26.30;46.34
6453;BME280;3259;51.080;13.712;2023-08-12T05:29:47;100615.91;;;26.43;46.48
6453;BME280;3259;51.080;13.712;2023-08-12T05:32:36;100620.94;;;26.59;46.43
6453;BME280;3259;51.080;13.712;2023-08-12T05:35:25;100616.19;;;26.61;46.12
6453;BME280;3259;51.080;13.712;2023-08-12T05:38:15;100615.59;;;26.72;45.71
6453;BME280;3259;51.080;13.712;2023-08-12T05:41:04;100625.53;;;26.91;45.24
6453;BME280;3259;51.080;13.712;2023-08-12T05:43:55;100619.75;;;26.81;45.26
6453;BME280;3259;51.080;13.712;2023-08-12T05:46:43;100620.38;;;26.83;45.50
6453;BME280;3259;51.080;13.712;2023-08-12T05:49:32;100626.31;;;26.79;45.54
6453;BME280;3259;51.080;13.712;2023-08-12T05:52:21;100626.31;;;26.79;45.60
6453;BME280;3259;51.080;13.712;2023-08-12T05:55:11;100622.41;;;26.68;45.58
6453;BME280;3259;51.080;13.712;2023-08-12T05:58:00;100623.41;;;26.61;45.59
6453;BME280;3259;51.080;13.712;2023-08-12T06:00:49;100617.16;;;26.47;45.76
6453;BME280;3259;51.080;13.712;2023-08-12T06:03:37;100610.22;;;26.53;45.54
6453;BME280;3259;51.080;13.712;2023-08-12T06:06:26;100617.16;;;26.47;45.60
6453;BME280;3259;51.080;13.712;2023-08-12T06:09:15;100618.38;;;26.38;45.98
6453;BME280;3259;51.080;13.712;2023-08-12T06:12:06;100611.56;;;26.29;46.25
6453;BME280;3259;51.080;13.712;2023-08-12T06:14:56;100603.97;;;26.39;46.13
6453;BME280;3259;51.080;13.712;2023-08-12T06:17:44;100610.16;;;26.46;45.83
6453;BME280;3259;51.080;13.712;2023-08-12T06:20:33;100603.53;;;26.29;46.60
6453;BME280;3259;51.080;13.712;2023-08-12T06:23:22;100603.75;;;26.41;46.28
6453;BME280;3259;51.080;13.712;2023-08-12T06:26:13;100598.63;;;26.39;46.32
6453;BME280;3259;51.080;13.712;2023-08-12T06:29:04;100603.97;;;26.39;46.20
6453;BME280;3259;51.080;13.712;2023-08-12T06:31:52;100595.72;;;26.34;46.51
6453;BME280;3259;51.080;13.712;2023-08-12T06:34:41;100606.00;;;26.37;46.41
6453;BME280;3259;51.080;13.712;2023-08-12T06:37:30;100603.16;;;26.45;45.91
6453;BME280;3259;51.080;13.712;2023-08-12T06:40:19;100602.72;;;26.35;46.27
6453;BME280;3259;51.080;13.712;2023-08-12T06:43:08;100596.97;;;26.38;45.98
6453;BME280;3259;51.080;13.712;2023-08-12T06:46:01;100590.59;;;26.39;46.25
6453;BME280;3259;51.080;13.712;2023-08-12T06:48:50;100593.72;;;26.49;46.25
6453;BME280;3259;51.080;13.712;2023-08-12T06:51:39;100595.00;;;26.53;46.72
6453;BME280;3259;51.080;13.712;2023-08-12T06:54:28;100593.72;;;26.49;46.75
6453;BME280;3259;51.080;13.712;2023-08-12T06:57:16;100594.56;;;26.50;46.73
6453;BME280;3259;51.080;13.712;2023-08-12T07:00:06;100592.94;;;26.55;46.36
6453;BME280;3259;51.080;13.712;2023-08-12T07:02:57;100587.41;;;26.63;46.20
6453;BME280;3259;51.080;13.712;2023-08-12T07:05:45;100590.88;;;26.57;46.41
6453;BME280;3259;51.080;13.712;2023-08-12T07:08:34;100594.16;;;26.59;46.10
6453;BME280;3259;51.080;13.712;2023-08-12T07:11:23;100587.19;;;26.71;46.06
6453;BME280;3259;51.080;13.712;2023-08-12T07:14:12;100589.06;;;26.64;46.12
6453;BME280;3259;51.080;13.712;2023-08-12T07:17:00;100582.44;;;26.60;46.19
6453;BME280;3259;51.080;13.712;2023-08-12T07:19:51;100574.03;;;26.63;46.29
6453;BME280;3259;51.080;13.712;2023-08-12T07:22:39;100583.91;;;26.63;46.34
6453;BME280;3259;51.080;13.712;2023-08-12T07:25:28;100584.94;;;26.68;46.27
6453;BME280;3259;51.080;13.712;2023-08-12T07:28:17;100578.56;;;26.69;46.38
6453;BME280;3259;51.080;13.712;2023-08-12T07:31:05;100580.19;;;26.70;46.23
6453;BME280;3259;51.080;13.712;2023-08-12T07:33:54;100569.91;;;26.74;46.19
6453;BME280;3259;51.080;13.712;2023-08-12T07:36:44;100579.59;;;26.81;45.88
6453;BME280;3259;51.080;13.712;2023-08-12T07:39:33;100575.91;;;26.82;46.23
6453;BME280;3259;51.080;13.712;2023-08-12T07:42:22;100580.66;;;26.93;46.00
6453;BME280;3259;51.080;13.712;2023-08-12T07:45:11;100573.44;;;26.81;46.35
6453;BME280;3259;51.080;13.712;2023-08-12T07:48:00;100572.84;;;26.85;46.71
6453;BME280;3259;51.080;13.712;2023-08-12T07:50:55;100566.84;;;26.83;46.73
6453;BME280;3259;51.080;13.712;2023-08-12T07:53:45;100567.25;;;26.87;46.58
6453;BME280;3259;51.080;13.712;2023-08-12T07:56:33;100567.69;;;27.03;46.36
6453;BME280;3259;51.080;13.712;2023-08-12T07:59:22;100567.69;;;26.97;46.53
6453;BME280;3259;51.080;13.712;2023-08-12T08:02:12;100563.81;;;27.19;45.95
6453;BME280;3259;51.080;13.712;2023-08-12T08:05:01;100558.00;;;27.41;45.21
6453;BME280;3259;51.080;13.712;2023-08-12T08:07:50;100555.09;;;27.49;45.61
6453;BME280;3259;51.080;13.712;2023-08-12T08:10:40;100565.19;;;27.60;45.53
6453;BME280;3259;51.080;13.712;2023-08-12T08:13:29;100551.97;;;27.65;46.17
6453;BME280;3259;51.080;13.712;2023-08-12T08:16:18;100541.91;;;27.41;48.79
6453;BME280;3259;51.080;13.712;2023-08-12T08:19:07;100541.50;;;27.31;49.01
6453;BME280;3259;51.080;13.712;2023-08-12T08:21:59;100539.69;;;27.32;48.29
6453;BME280;3259;51.080;13.712;2023-08-12T08:24:48;100541.94;;;27.28;47.79
6453;BME280;3259;51.080;13.712;2023-08-12T08:27:38;100542.78;;;27.22;47.76
6453;BME280;3259;51.080;13.712;2023-08-12T08:30:30;100539.06;;;27.23;47.41
6453;BME280;3259;51.080;13.712;2023-08-12T08:33:19;100539.88;;;27.30;46.97
6453;BME280;3259;51.080;13.712;2023-08-12T08:36:08;100547.72;;;27.32;46.81
6453;BME280;3259;51.080;13.712;2023-08-12T08:38:56;100545.22;;;27.30;46.79
6453;BME280;3259;51.080;13.712;2023-08-12T08:41:47;100547.91;;;27.37;46.42
6453;BME280;3259;51.080;13.712;2023-08-12T08:44:39;100542.75;;;27.35;46.28
6453;BME280;3259;51.080;13.712;2023-08-12T08:47:29;100536.16;;;27.31;46.41
6453;BME280;3259;51.080;13.712;2023-08-12T08:50:20;100540.09;;;27.35;46.49
6453;BME280;3259;51.080;13.712;2023-08-12T08:53:09;100543.56;;;27.36;46.52
6453;BME280;3259;51.080;13.712;2023-08-12T08:55:58;100534.13;;;27.33;46.30
6453;BME280;3259;51.080;13.712;2023-08-12T08:58:48;100526.69;;;27.35;46.32
6453;BME280;3259;51.080;13.712;2023-08-12T09:01:47;100531.00;;;27.36;46.30
6453;BME280;3259;51.080;13.712;2023-08-12T09:04:38;100537.81;;;27.45;46.12
6453;BME280;3259;51.080;13.712;2023-08-12T09:07:27;100529.97;;;27.44;45.82
6453;BME280;3259;51.080;13.712;2023-08-12T09:10:17;100534.88;;;27.53;45.91
6453;BME280;3259;51.080;13.712;2023-08-12T09:13:09;100523.34;;;27.53;45.51
6453;BME280;3259;51.080;13.712;2023-08-12T09:15:58;100510.19;;;27.38;46.17
6453;BME280;3259;51.080;13.712;2023-08-12T09:18:54;100514.69;;;27.57;45.89
6453;BME280;3259;51.080;13.712;2023-08-12T09:21:43;100513.59;;;27.71;45.22
6453;BME280;3259;51.080;13.712;2023-08-12T09:24:32;100505.13;;;27.81;44.97
6453;BME280;3259;51.080;13.712;2023-08-12T09:27:21;100510.47;;;27.87;45.03
6453;BME280;3259;51.080;13.712;2023-08-12T09:30:10;100500.97;;;27.91;44.89
6453;BME280;3259;51.080;13.712;2023-08-12T09:33:01;100500.59;;;27.88;44.67
6453;BME280;3259;51.080;13.712;2023-08-12T09:35:52;100495.44;;;27.86;44.86
6453;BME280;3259;51.080;13.712;2023-08-12T09:38:43;100492.81;;;27.73;45.28
6453;BME280;3259;51.080;13.712;2023-08-12T09:41:32;100493.41;;;27.69;45.40
6453;BME280;3259;51.080;13.712;2023-08-12T09:44:22;100484.13;;;27.71;45.23
6453;BME280;3259;51.080;13.712;2023-08-12T09:47:11;100479.56;;;27.78;44.98
6453;BME280;3259;51.080;13.712;2023-08-12T09:50:01;100486.78;;;27.84;44.69
6453;BME280;3259;51.080;13.712;2023-08-12T09:52:52;100484.88;;;27.91;44.99
6453;BME280;3259;51.080;13.712;2023-08-12T09:55:43;100473.09;;;27.99;44.30
6453;BME280;3259;51.080;13.712;2023-08-12T09:58:35;100477.25;;;27.88;44.66
6453;BME280;3259;51.080;13.712;2023-08-12T10:01:25;100468.00;;;27.84;45.36
6453;BME280;3259;51.080;13.712;2023-08-12T10:04:17;100473.41;;;27.78;45.14
6453;BME280;3259;51.080;13.712;2023-08-12T10:07:07;100478.38;;;27.61;45.55
6453;BME280;3259;51.080;13.712;2023-08-12T10:10:01;100475.88;;;27.66;45.75
6453;BME280;3259;51.080;13.712;2023-08-12T10:12:51;100468.88;;;27.65;45.93
6453;BME280;3259;51.080;13.712;2023-08-12T10:15:40;100463.94;;;27.62;45.96
6453;BME280;3259;51.080;13.712;2023-08-12T10:18:30;100463.56;;;27.52;45.85
6453;BME280;3259;51.080;13.712;2023-08-12T10:21:20;100459.84;;;27.53;45.87
6453;BME280;3259;51.080;13.712;2023-08-12T10:24:11;100459.63;;;27.61;45.70
6453;BME280;3259;51.080;13.712;2023-08-12T10:27:02;100462.50;;;27.60;45.75
6453;BME280;3259;51.080;13.712;2023-08-12T10:29:52;100459.00;;;27.59;45.81
6453;BME280;3259;51.080;13.712;2023-08-12T10:32:41;100467.06;;;27.59;45.95
6453;BME280;3259;51.080;13.712;2023-08-12T10:35:41;100463.53;;;27.59;45.64
6453;BME280;3259;51.080;13.712;2023-08-12T10:38:32;100461.09;;;27.57;45.69
6453;BME280;3259;51.080;13.712;2023-08-12T10:41:22;100455.53;;;27.52;45.96
6453;BME280;3259;51.080;13.712;2023-08-12T10:44:13;100452.41;;;27.55;45.65
6453;BME280;3259;51.080;13.712;2023-08-12T10:47:07;100456.97;;;27.55;45.78
6453;BME280;3259;51.080;13.712;2023-08-12T10:49:58;100451.03;;;27.46;45.96
6453;BME280;3259;51.080;13.712;2023-08-12T10:52:47;100449.56;;;27.50;45.81
6453;BME280;3259;51.080;13.712;2023-08-12T10:55:36;100447.47;;;27.52;45.95
6453;BME280;3259;51.080;13.712;2023-08-12T10:58:26;100438.41;;;27.53;45.57
6453;BME280;3259;51.080;13.712;2023-08-12T11:01:18;100443.78;;;27.53;45.77
6453;BME280;3259;51.080;13.712;2023-08-12T11:04:16;100441.94;;;27.54;45.56
6453;BME280;3259;51.080;13.712;2023-08-12T11:07:14;100436.75;;;27.52;45.62
6453;BME280;3259;51.080;13.712;2023-08-12T11:10:04;100431.84;;;27.49;45.67
6453;BME280;3259;51.080;13.712;2023-08-12T11:12:56;100442.13;;;27.52;45.48
6453;BME280;3259;51.080;13.712;2023-08-12T11:15:45;100441.72;;;27.49;45.63
6453;BME280;3259;51.080;13.712;2023-08-12T11:18:35;100443.34;;;27.56;45.37
6453;BME280;3259;51.080;13.712;2023-08-12T11:21:25;100441.69;;;27.55;45.73
6453;BME280;3259;51.080;13.712;2023-08-12T11:24:15;100442.13;;;27.52;45.33
6453;BME280;3259;51.080;13.712;2023-08-12T11:27:04;100442.50;;;27.62;45.38
6453;BME280;3259;51.080;13.712;2023-08-12T11:29:53;100437.38;;;27.54;45.62
6453;BME280;3259;51.080;13.712;2023-08-12T11:32:42;100428.53;;;27.54;45.78
6453;BME280;3259;51.080;13.712;2023-08-12T11:35:32;100438.41;;;27.53;45.68
6453;BME280;3259;51.080;13.712;2023-08-12T11:38:23;100431.59;;;27.57;45.57
6453;BME280;3259;51.080;13.712;2023-08-12T11:41:12;100431.38;;;27.59;45.49
6453;BME280;3259;51.080;13.712;2023-08-12T11:44:01;100428.13;;;27.50;45.74
6453;BME280;3259;51.080;13.712;2023-08-12T11:46:51;100426.66;;;27.54;45.70
6453;BME280;3259;51.080;13.712;2023-08-12T11:49:40;100418.84;;;27.53;45.58
6453;BME280;3259;51.080;13.712;2023-08-12T11:52:31;100413.25;;;27.54;45.52
6453;BME280;3259;51.080;13.712;2023-08-12T11:55:20;100413.69;;;27.51;45.54
6453;BME280;3259;51.080;13.712;2023-08-12T11:58:11;100412.44;;;27.54;45.72
6453;BME280;3259;51.080;13.712;2023-08-12T12:00:59;100412.84;;;27.57;45.45
6453;BME280;3259;51.080;13.712;2023-08-12T12:03:50;100413.25;;;27.54;45.36
6453;BME280;3259;51.080;13.712;2023-08-12T12:06:40;100411.00;;;27.51;45.56
6453;BME280;3259;51.080;13.712;2023-08-12T12:09:30;100407.88;;;27.54;45.56
6453;BME280;3259;51.080;13.712;2023-08-12T12:12:22;100407.88;;;27.54;45.64
6453;BME280;3259;51.080;13.712;2023-08-12T12:15:13;100408.31;;;27.51;45.60
6453;BME280;3259;51.080;13.712;2023-08-12T12:18:03;100404.97;;;27.62;45.56
6453;BME280;3259;51.080;13.712;2023-08-12T12:20:55;100410.09;;;27.70;45.22
6453;BME280;3259;51.080;13.712;2023-08-12T12:23:44;100409.47;;;27.68;45.14
6453;BME280;3259;51.080;13.712;2023-08-12T12:26:34;100402.66;;;27.72;45.23
6453;BME280;3259;51.080;13.712;2023-08-12T12:29:23;100402.66;;;27.72;45.33
6453;BME280;3259;51.080;13.712;2023-08-12T12:32:12;100402.03;;;27.83;45.00
6453;BME280;3259;51.080;13.712;2023-08-12T12:35:01;100411.94;;;27.70;45.25
6453;BME280;3259;51.080;13.712;2023-08-12T12:37:50;100406.00;;;27.61;45.64
6453;BME280;3259;51.080;13.712;2023-08-12T12:40:39;100405.97;;;27.68;45.46
6453;BME280;3259;51.080;13.712;2023-08-12T12:43:29;100406.19;;;27.66;45.26
6453;BME280;3259;51.080;13.712;2023-08-12T12:46:17;100400.41;;;27.69;45.13
6453;BME280;3259;51.080;13.712;2023-08-12T12:49:06;100394.03;;;27.70;45.15
6453;BME280;3259;51.080;13.712;2023-08-12T12:51:55;100387.00;;;27.76;45.24
6453;BME280;3259;51.080;13.712;2023-08-12T12:54:43;100383.69;;;27.74;45.18
6453;BME280;3259;51.080;13.712;2023-08-12T12:57:32;100379.78;;;27.76;45.15
6453;BME280;3259;51.080;13.712;2023-08-12T13:00:23;100376.50;;;27.74;45.09
6453;BME280;3259;51.080;13.712;2023-08-12T13:03:11;100370.69;;;27.71;45.05
6453;BME280;3259;51.080;13.712;2023-08-12T13:06:00;100367.41;;;27.75;45.23
6453;BME280;3259;51.080;13.712;2023-08-12T13:08:49;100362.03;;;27.75;45.34
6453;BME280;3259;51.080;13.712;2023-08-12T13:11:38;100358.13;;;27.71;45.19
6453;BME280;3259;51.080;13.712;2023-08-12T13:14:26;100360.81;;;27.71;45.44
6453;BME280;3259;51.080;13.712;2023-08-12T13:17:18;100348.66;;;27.75;45.20
6453;BME280;3259;51.080;13.712;2023-08-12T13:20:08;100345.78;;;27.70;45.58
6453;BME280;3259;51.080;13.712;2023-08-12T13:22:57;100343.50;;;27.67;45.53
6453;BME280;3259;51.080;13.712;2023-08-12T13:25:46;100339.38;;;27.71;45.50
6453;BME280;3259;51.080;13.712;2023-08-12T13:28:35;100337.72;;;27.70;45.33
6453;BME280;3259;51.080;13.712;2023-08-12T13:31:24;100324.53;;;27.69;45.23
6453;BME280;3259;51.080;13.712;2023-08-12T13:34:14;100330.28;;;27.72;45.37
6453;BME280;3259;51.080;13.712;2023-08-12T13:37:04;100321.66;;;27.70;45.15
6453;BME280;3259;51.080;13.712;2023-08-12T13:39:53;100330.09;;;27.74;45.29
6453;BME280;3259;51.080;13.712;2023-08-12T13:42:41;100322.88;;;27.74;44.95
6453;BME280;3259;51.080;13.712;2023-08-12T13:45:30;100322.00;;;27.80;45.24
6453;BME280;3259;51.080;13.712;2023-08-12T13:48:19;100324.06;;;27.78;44.91
6453;BME280;3259;51.080;13.712;2023-08-12T13:51:10;100323.47;;;27.76;45.07
6453;BME280;3259;51.080;13.712;2023-08-12T13:53:58;100326.75;;;27.78;45.29
6453;BME280;3259;51.080;13.712;2023-08-12T13:56:47;100334.19;;;27.76;45.20
6453;BME280;3259;51.080;13.712;2023-08-12T13:59:36;100334.38;;;27.81;45.15
6453;BME280;3259;51.080;13.712;2023-08-12T14:02:25;100329.06;;;27.75;44.95
6453;BME280;3259;51.080;13.712;2023-08-12T14:05:14;100334.38;;;27.81;45.24
6453;BME280;3259;51.080;13.712;2023-08-12T14:08:05;100327.34;;;27.80;45.19
6453;BME280;3259;51.080;13.712;2023-08-12T14:10:54;100327.81;;;27.77;45.27
6453;BME280;3259;51.080;13.712;2023-08-12T14:13:42;100321.84;;;27.75;45.06
6453;BME280;3259;51.080;13.712;2023-08-12T14:16:31;100316.22;;;27.83;45.12
6453;BME280;3259;51.080;13.712;2023-08-12T14:19:20;100311.47;;;27.85;45.12
6453;BME280;3259;51.080;13.712;2023-08-12T14:22:09;100306.25;;;27.90;45.11
6453;BME280;3259;51.080;13.712;2023-08-12T14:24:59;100300.94;;;27.84;45.01
6453;BME280;3259;51.080;13.712;2023-08-12T14:27:51;100306.69;;;27.87;44.88
6453;BME280;3259;51.080;13.712;2023-08-12T14:30:40;100297.00;;;27.86;45.00
6453;BME280;3259;51.080;13.712;2023-08-12T14:33:29;100306.75;;;27.81;45.20
6453;BME280;3259;51.080;13.712;2023-08-12T14:36:20;100294.34;;;27.86;44.89
6453;BME280;3259;51.080;13.712;2023-08-12T14:39:08;100292.63;;;27.92;45.02
6453;BME280;3259;51.080;13.712;2023-08-12T14:41:59;100289.47;;;28.01;44.78
6453;BME280;3259;51.080;13.712;2023-08-12T14:44:49;100287.56;;;28.08;44.43
6453;BME280;3259;51.080;13.712;2023-08-12T14:47:38;100279.31;;;28.28;44.20
6453;BME280;3259;51.080;13.712;2023-08-12T14:50:27;100271.06;;;28.29;44.11
6453;BME280;3259;51.080;13.712;2023-08-12T14:53:18;100265.53;;;28.24;44.29
6453;BME280;3259;51.080;13.712;2023-08-12T14:56:07;100256.44;;;28.25;44.33
6453;BME280;3259;51.080;13.712;2023-08-12T14:58:58;100250.66;;;28.28;43.84